Time;durP1;ratioP1;P1;durP2;ratioP2;P2;SDS_P1;SDS_P2;PMS_P1;PMS_P2;Temp;Humidity;BMP_temperature;BMP_pressure;BME280_temperature;BME280_humidity;BME280_pressure;Samples;Min_cycle;Max_cycle;Signal;HPM_P1;HPM_P2
2022/05/13 00:01:10;;;;;;;8.05;4.90;;;;;;;14.97;85.78;94288.00;4898272;29;20049;-48
2022/05/13 00:03:39;;;;;;;7.35;4.55;;;;;;;14.94;85.29;94294.38;4898736;29;20517;-48
2022/05/13 00:06:07;;;;;;;7.13;5.00;;;;;;;14.95;85.62;94293.16;4898097;29;20379;-51
2022/05/13 00:08:34;;;;;;;8.03;4.90;;;;;;;14.62;86.62;94282.16;4898531;29;20045;-53
2022/05/13 00:11:03;;;;;;;9.18;5.00;;;;;;;14.38;88.68;94270.47;4898293;29;20052;-53
2022/05/13 00:13:30;;;;;;;8.27;5.22;;;;;;;14.48;88.75;94272.19;4896399;29;20053;-51
2022/05/13 00:15:57;;;;;;;8.75;5.35;;;;;;;14.68;88.27;94276.88;4897892;29;20040;-52
2022/05/13 00:18:24;;;;;;;8.38;5.30;;;;;;;14.79;88.21;94280.16;4898137;29;20067;-47
2022/05/13 00:20:51;;;;;;;8.87;5.67;;;;;;;14.76;88.02;94275.50;4898478;29;20052;-51
2022/05/13 00:23:18;;;;;;;7.05;5.15;;;;;;;14.80;86.98;94273.41;4900546;29;20055;-48
2022/05/13 00:25:45;;;;;;;7.45;5.07;;;;;;;14.80;87.35;94273.41;4917246;29;20047;-54
2022/05/13 00:28:13;;;;;;;7.05;4.97;;;;;;;14.74;87.21;94259.34;4916358;29;20075;-52
2022/05/13 00:30:43;;;;;;;7.63;4.95;;;;;;;14.82;86.52;94253.66;4916932;29;20056;-47
2022/05/13 00:33:10;;;;;;;7.70;5.07;;;;;;;14.88;86.88;94251.91;4916653;29;20481;-49
2022/05/13 00:35:38;;;;;;;8.43;4.85;;;;;;;14.75;86.71;94251.84;4900155;29;20048;-54
2022/05/13 00:38:06;;;;;;;7.57;5.13;;;;;;;14.66;87.33;94254.44;4915642;29;20404;-49
2022/05/13 00:40:34;;;;;;;7.20;5.10;;;;;;;14.70;87.02;94261.41;4916796;29;20079;-51
2022/05/13 00:43:05;;;;;;;6.80;4.78;;;;;;;14.76;86.77;94253.38;4916826;29;20317;-50
2022/05/13 00:45:32;;;;;;;7.10;4.60;;;;;;;14.82;86.11;94253.66;4915874;29;20465;-49
2022/05/13 00:48:00;;;;;;;7.38;5.13;;;;;;;14.85;85.94;94252.75;4916825;29;20052;-51
2022/05/13 00:50:32;;;;;;;8.95;5.20;;;;;;;14.76;86.13;94254.16;4916129;29;20048;-49
2022/05/13 00:53:00;;;;;;;7.65;4.90;;;;;;;14.78;85.49;94251.75;4910530;29;20519;-47
2022/05/13 00:55:32;;;;;;;8.13;5.53;;;;;;;14.84;85.63;94245.69;4903791;29;20044;-48
2022/05/13 00:58:00;;;;;;;6.90;4.80;;;;;;;14.85;85.72;94250.00;4897745;29;20056;-47
2022/05/13 01:00:28;;;;;;;8.40;5.10;;;;;;;14.88;85.91;94247.16;4897348;29;20051;-49
2022/05/13 01:02:55;;;;;;;7.22;5.32;;;;;;;14.81;86.21;94241.81;4897718;29;20092;-51
2022/05/13 01:05:23;;;;;;;6.88;5.10;;;;;;;14.71;86.75;94242.88;4897244;29;20057;-49
2022/05/13 01:07:50;;;;;;;8.05;4.97;;;;;;;14.75;86.56;94241.56;4897736;29;20088;-53
2022/05/13 01:10:21;;;;;;;6.50;5.00;;;;;;;14.85;86.76;94244.47;4897021;29;20056;-48
2022/05/13 01:12:55;;;;;;;7.03;5.32;;;;;;;14.81;86.33;94239.06;4897670;29;20045;-49
2022/05/13 01:15:26;;;;;;;7.03;4.78;;;;;;;14.85;86.25;94238.94;4896899;29;20056;-52
2022/05/13 01:18:06;;;;;;;7.82;5.50;;;;;;;14.83;86.65;94242.16;4897344;29;20417;-49
2022/05/13 01:20:48;;;;;;;7.95;5.15;;;;;;;14.80;86.31;94231.97;4896603;29;20319;-47
2022/05/13 01:23:20;;;;;;;7.37;5.10;;;;;;;14.80;86.00;94228.44;4899314;29;20075;-55
2022/05/13 01:25:59;;;;;;;8.05;4.93;;;;;;;14.75;86.00;94225.00;4916228;29;20041;-47
2022/05/13 01:28:39;;;;;;;8.18;4.90;;;;;;;14.77;86.38;94227.31;4915837;29;20036;-55
2022/05/13 01:31:12;;;;;;;8.23;5.25;;;;;;;14.68;87.41;94218.88;4915593;29;20059;-51
2022/05/13 01:33:40;;;;;;;7.32;5.47;;;;;;;14.63;87.86;94222.94;4916094;29;20059;-48
2022/05/13 01:36:12;;;;;;;7.47;5.27;;;;;;;14.63;87.40;94222.94;4915608;29;20059;-48
2022/05/13 01:38:41;;;;;;;6.85;4.88;;;;;;;14.55;87.17;94222.31;4915979;29;20743;-49
2022/05/13 01:41:11;;;;;;;8.27;5.50;;;;;;;14.57;87.25;94219.16;4915656;29;20444;-50
2022/05/13 01:43:39;;;;;;;7.18;5.13;;;;;;;14.53;87.14;94230.28;4916022;29;20044;-48
2022/05/13 01:46:06;;;;;;;7.93;5.50;;;;;;;14.62;87.47;94224.16;4915005;29;20062;-52
2022/05/13 01:48:34;;;;;;;8.63;5.90;;;;;;;14.23;88.98;94211.31;4914947;29;20055;-50
2022/05/13 01:51:01;;;;;;;8.55;5.40;;;;;;;14.39;88.82;94219.59;4915650;29;20048;-51
2022/05/13 01:53:29;;;;;;;8.30;6.10;;;;;;;14.46;88.82;94224.16;4909122;29;20062;-47
2022/05/13 01:55:56;;;;;;;8.60;5.50;;;;;;;14.49;89.21;94232.34;4897996;29;20057;-52
2022/05/13 01:58:24;;;;;;;7.38;5.70;;;;;;;14.49;89.06;94232.34;4910821;29;20103;-47
2022/05/13 02:00:54;;;;;;;7.40;5.40;;;;;;;14.49;89.19;94226.81;4896603;29;20504;-48
2022/05/13 02:06:08;;;;;;;7.10;5.40;;;;;;;14.42;89.00;94240.03;4896245;29;20051;-48
2022/05/13 02:08:35;;;;;;;7.63;5.60;;;;;;;14.31;89.50;94243.06;4896535;29;20055;-52
2022/05/13 02:11:02;;;;;;;8.63;5.70;;;;;;;14.23;90.10;94245.22;4896434;29;20056;-49
2022/05/13 02:13:29;;;;;;;8.80;5.80;;;;;;;14.21;90.07;94255.91;4895568;29;20898;-53
2022/05/13 02:15:56;;;;;;;12.80;7.35;;;;;;;14.33;90.65;94255.22;4896147;29;20053;-48
2022/05/13 02:18:23;;;;;;;10.73;6.80;;;;;;;14.50;90.29;94257.97;4895637;29;20402;-52
2022/05/13 02:20:50;;;;;;;10.48;7.20;;;;;;;14.57;89.69;94247.56;4896199;29;20413;-49
2022/05/13 02:23:20;;;;;;;8.65;6.03;;;;;;;14.35;89.29;94246.50;4898194;29;20049;-49
2022/05/13 02:25:51;;;;;;;8.00;5.90;;;;;;;14.21;90.51;94249.63;4915197;29;20051;-48
2022/05/13 02:28:18;;;;;;;12.60;7.35;;;;;;;13.79;92.82;94247.41;4914786;29;20511;-55
2022/05/13 02:30:45;;;;;;;8.95;5.82;;;;;;;14.11;92.14;94245.91;4914794;29;20106;-48
2022/05/13 02:33:13;;;;;;;10.07;6.75;;;;;;;14.30;91.46;94242.25;4914463;29;20067;-48
2022/05/13 02:35:39;;;;;;;13.23;6.60;;;;;;;14.32;90.95;94248.13;4915038;29;20052;-48
2022/05/13 02:38:06;;;;;;;9.00;6.47;;;;;;;14.42;90.54;94240.03;4914547;29;20048;-51
2022/05/13 02:43:18;;;;;;;9.05;6.45;;;;;;;14.55;90.07;94238.91;4914167;29;20047;-50
2022/05/13 02:45:46;;;;;;;9.30;5.90;;;;;;;14.60;89.84;94247.91;4914778;29;20048;-50
2022/05/13 02:48:13;;;;;;;8.23;5.63;;;;;;;14.68;89.46;94246.50;4913050;29;20052;-47
2022/05/13 02:50:40;;;;;;;9.07;5.90;;;;;;;14.69;88.98;94243.31;4914662;29;20458;-48
2022/05/13 02:53:07;;;;;;;53.08;29.55;;;;;;;14.70;88.73;94231.03;4914218;29;20409;-50
2022/05/13 02:55:33;;;;;;;11.73;8.10;;;;;;;14.46;89.47;94235.19;4914637;29;20052;-53
2022/05/13 02:58:00;;;;;;;9.55;6.45;;;;;;;14.19;91.53;94233.47;4914635;29;20059;-50
2022/05/13 03:00:27;;;;;;;8.98;6.50;;;;;;;14.26;91.44;94221.47;4913994;29;20412;-51
2022/05/13 03:02:54;;;;;;;10.23;6.60;;;;;;;14.29;91.56;94217.88;4914520;29;20064;-48
2022/05/13 03:05:21;;;;;;;10.15;6.57;;;;;;;14.33;91.34;94218.56;4914139;29;20157;-49
2022/05/13 03:07:48;;;;;;;12.13;7.13;;;;;;;14.38;91.34;94227.06;4914435;29;20373;-50
2022/05/13 03:10:14;;;;;;;9.85;7.05;;;;;;;14.38;91.02;94221.53;4913987;29;20052;-49
2022/05/13 03:12:42;;;;;;;9.00;6.50;;;;;;;14.31;91.27;94218.97;4914512;29;20056;-55
2022/05/13 03:15:10;;;;;;;10.43;6.33;;;;;;;14.27;90.96;94212.00;4913524;29;20052;-48
2022/05/13 03:17:37;;;;;;;9.48;6.22;;;;;;;14.27;91.26;94220.28;4914176;29;20052;-47
2022/05/13 03:20:06;;;;;;;12.40;6.55;;;;;;;14.23;91.02;94216.84;4897263;29;20055;-47
2022/05/13 03:22:33;;;;;;;10.27;6.00;;;;;;;14.19;90.84;94205.88;4897972;29;20045;-49
2022/05/13 03:25:00;;;;;;;10.10;6.10;;;;;;;14.13;90.89;94213.13;4892182;29;20402;-47
2022/05/13 03:27:28;;;;;;;8.67;6.27;;;;;;;14.06;90.80;94213.28;4876130;29;20393;-49
2022/05/13 03:29:55;;;;;;;11.20;7.70;;;;;;;13.96;91.28;94217.84;4876619;29;20092;-53
2022/05/13 03:32:21;;;;;;;12.27;8.45;;;;;;;13.99;91.15;94219.75;4875747;29;20061;-47
2022/05/13 03:34:48;;;;;;;11.48;7.25;;;;;;;14.03;90.82;94219.69;4876828;29;20056;-48
2022/05/13 03:37:15;;;;;;;9.70;6.45;;;;;;;13.98;90.75;94218.19;4876115;29;20495;-50
2022/05/13 03:39:42;;;;;;;8.77;6.10;;;;;;;13.80;91.47;94215.84;4876439;29;20061;-47
2022/05/13 03:42:09;;;;;;;9.52;6.30;;;;;;;13.87;91.40;94217.69;4876030;29;20387;-50
2022/05/13 03:44:36;;;;;;;9.38;6.75;;;;;;;13.79;92.03;94217.06;4876421;29;20041;-47
2022/05/13 03:47:04;;;;;;;9.73;6.65;;;;;;;13.69;92.59;94213.34;4876106;29;20049;-48
2022/05/13 03:49:31;;;;;;;12.30;7.22;;;;;;;13.74;92.90;94210.09;4876587;29;20081;-48
2022/05/13 03:51:58;;;;;;;11.70;7.07;;;;;;;13.79;92.49;94201.28;4876506;29;20055;-52
2022/05/13 03:54:25;;;;;;;11.13;7.20;;;;;;;13.82;92.58;94213.44;4876162;29;20055;-50
2022/05/13 03:56:52;;;;;;;12.32;7.60;;;;;;;13.74;93.25;94225.84;4876328;29;20067;-51
2022/05/13 03:59:19;;;;;;;12.65;7.80;;;;;;;13.71;92.53;94221.97;4875871;29;20064;-52
2022/05/13 04:01:45;;;;;;;11.80;7.75;;;;;;;13.71;93.25;94210.94;4876184;29;20503;-49
2022/05/13 04:04:12;;;;;;;10.10;7.23;;;;;;;13.76;93.15;94215.94;4875872;29;20057;-48
2022/05/13 04:09:32;;;;;;;9.90;7.00;;;;;;;13.90;92.44;94214.81;4875399;29;20415;-49
2022/05/13 04:17:35;;;;;;;13.20;8.50;;;;;;;14.03;91.52;94223.22;4897646;29;20918;-50
2022/05/13 04:20:03;;;;;;;12.13;8.18;;;;;;;14.09;91.82;94217.94;4898236;29;20449;-57
2022/05/13 04:22:31;;;;;;;12.77;8.30;;;;;;;14.13;91.75;94222.19;4897200;29;20530;-50
2022/05/13 04:24:58;;;;;;;11.60;7.43;;;;;;;14.22;90.69;94216.03;4913722;29;20070;-47
2022/05/13 04:27:25;;;;;;;9.82;7.03;;;;;;;14.31;90.43;94215.44;4916739;29;20046;-51
2022/05/13 04:29:52;;;;;;;11.57;7.37;;;;;;;14.30;90.44;94224.94;4916936;29;20391;-48
2022/05/13 04:32:19;;;;;;;9.85;7.13;;;;;;;14.46;90.21;94230.44;4916376;29;20620;-48
2022/05/13 04:34:46;;;;;;;11.32;7.38;;;;;;;14.49;89.34;94226.06;4917030;29;20409;-49
2022/05/13 04:37:13;;;;;;;10.13;7.28;;;;;;;14.44;89.57;94232.84;4916413;29;20148;-50
2022/05/13 04:39:39;;;;;;;10.38;7.45;;;;;;;14.52;89.81;94238.97;4916886;29;20494;-50
2022/05/13 04:44:52;;;;;;;11.70;8.38;;;;;;;14.00;91.12;94224.06;4899424;29;20083;-50
2022/05/13 04:50:04;;;;;;;18.95;12.50;;;;;;;13.89;92.98;94226.31;4897227;29;20044;-49
2022/05/13 04:52:30;;;;;;;12.55;9.18;;;;;;;14.08;92.07;94227.44;4897483;29;20071;-53
2022/05/13 04:54:57;;;;;;;12.07;8.70;;;;;;;14.29;91.48;94226.16;4897788;29;20044;-49
2022/05/13 04:57:24;;;;;;;12.27;8.27;;;;;;;14.40;90.45;94226.66;4897242;29;20055;-52
2022/05/13 04:59:51;;;;;;;17.15;10.85;;;;;;;14.30;90.74;94214.66;4897533;29;20040;-50
2022/05/13 05:02:17;;;;;;;16.15;11.20;;;;;;;14.31;91.89;94213.47;4897005;29;20055;-51
2022/05/13 05:04:45;;;;;;;15.75;10.10;;;;;;;14.43;91.34;94223.03;4897448;29;20103;-51
2022/05/13 05:07:11;;;;;;;12.97;8.63;;;;;;;14.53;91.25;94230.28;4911127;29;20053;-48
2022/05/13 05:09:39;;;;;;;12.48;8.05;;;;;;;14.68;90.70;94232.69;4897408;29;20059;-54
2022/05/13 05:12:07;;;;;;;13.25;7.93;;;;;;;14.71;90.30;94232.59;4896719;29;20489;-49
2022/05/13 05:14:35;;;;;;;14.13;10.40;;;;;;;14.71;90.31;94232.59;4895819;29;20058;-53
2022/05/13 05:17:02;;;;;;;23.52;14.43;;;;;;;14.71;90.20;94235.38;4897358;29;20044;-55
2022/05/13 05:19:29;;;;;;;34.47;19.47;;;;;;;14.39;91.17;94236.91;4896394;29;20786;-50
2022/05/13 05:21:55;;;;;;;40.20;22.27;;;;;;;14.57;91.23;94244.78;4897113;29;20064;-49
2022/05/13 05:24:22;;;;;;;20.75;13.25;;;;;;;14.70;90.48;94239.31;4914118;29;20082;-51
2022/05/13 05:26:58;;;;;;;21.40;13.65;;;;;;;14.70;90.02;94238.56;4916302;29;20059;-58
2022/05/13 05:29:25;;;;;;;14.07;9.27;;;;;;;14.54;89.60;94239.31;4915524;29;20036;-55
2022/05/13 05:31:52;;;;;;;12.67;9.27;;;;;;;14.53;90.89;94235.78;4916062;29;20051;-51
2022/05/13 05:34:18;;;;;;;17.00;10.45;;;;;;;14.71;91.13;94238.13;4915483;29;20056;-46
2022/05/13 05:36:45;;;;;;;13.15;9.07;;;;;;;14.84;90.06;94232.66;4915996;29;20082;-53
2022/05/13 05:39:12;;;;;;;12.20;8.88;;;;;;;14.61;89.59;94233.66;4915426;29;20319;-53
2022/05/13 05:41:38;;;;;;;14.18;9.13;;;;;;;14.59;90.48;94247.13;4915713;29;20416;-51
2022/05/13 05:44:05;;;;;;;13.73;9.30;;;;;;;14.73;90.84;94238.47;4915337;29;20052;-54
2022/05/13 05:46:32;;;;;;;14.98;9.65;;;;;;;14.72;89.92;94253.47;4915503;29;20473;-48
2022/05/13 05:48:59;;;;;;;14.98;9.52;;;;;;;14.58;90.24;94249.09;4930029;29;20060;-54
2022/05/13 05:51:26;;;;;;;13.65;9.30;;;;;;;14.77;90.80;94252.97;4914774;29;20405;-51
2022/05/13 05:59:24;;;;;;;13.30;9.35;;;;;;;15.11;88.74;94250.88;4915088;29;20082;-51
2022/05/13 06:01:51;;;;;;;13.45;10.30;;;;;;;15.13;88.75;94262.28;4915435;29;20052;-51
2022/05/13 06:04:20;;;;;;;14.07;9.35;;;;;;;15.18;88.95;94257.00;4914954;29;20058;-47
2022/05/13 06:06:47;;;;;;;15.23;10.43;;;;;;;15.08;89.21;94254.53;4915300;29;20048;-50
2022/05/13 06:09:13;;;;;;;17.53;10.47;;;;;;;15.41;88.50;94238.59;4914594;29;20048;-48
2022/05/13 06:11:40;;;;;;;17.52;10.40;;;;;;;15.63;87.41;94237.97;4912418;29;20053;-50
2022/05/13 06:14:09;;;;;;;15.82;10.52;;;;;;;15.93;86.90;94242.22;4910497;29;20607;-52
2022/05/13 06:16:37;;;;;;;13.52;9.65;;;;;;;16.15;85.53;94248.66;4896394;29;20054;-52
2022/05/13 06:19:04;;;;;;;13.88;10.15;;;;;;;16.04;85.20;94251.00;4896075;29;20060;-49
2022/05/13 06:21:33;;;;;;;16.80;9.80;;;;;;;16.07;85.26;94249.31;4896299;29;20054;-49
2022/05/13 06:24:00;;;;;;;19.17;10.88;;;;;;;16.00;84.81;94255.06;4904449;29;20111;-51
2022/05/13 06:26:28;;;;;;;15.35;9.98;;;;;;;15.92;85.74;94254.53;4914546;29;20044;-49
2022/05/13 06:28:55;;;;;;;14.60;9.73;;;;;;;16.02;85.02;94247.09;4914935;29;20106;-50
2022/05/13 06:31:23;;;;;;;14.35;10.02;;;;;;;16.16;84.79;94252.22;4914435;29;20044;-49
2022/05/13 06:33:51;;;;;;;16.03;9.93;;;;;;;16.22;84.55;94257.94;4914639;29;20047;-52
2022/05/13 06:36:17;;;;;;;12.45;8.88;;;;;;;16.32;83.42;94245.78;4914172;29;20048;-53
2022/05/13 06:38:46;;;;;;;16.33;9.43;;;;;;;16.19;83.94;94259.63;4914570;29;20044;-56
2022/05/13 06:41:14;;;;;;;13.70;9.50;;;;;;;16.37;84.00;94259.81;4914033;29;20083;-53
2022/05/13 06:43:41;;;;;;;13.18;9.82;;;;;;;16.60;83.88;94260.69;4914618;29;20044;-51
2022/05/13 06:46:07;;;;;;;15.17;9.43;;;;;;;16.88;82.79;94256.22;4914359;29;20497;-50
2022/05/13 06:48:34;;;;;;;13.23;9.48;;;;;;;17.10;81.63;94261.00;4914746;29;20481;-49
2022/05/13 06:51:02;;;;;;;14.27;9.40;;;;;;;16.82;81.67;94257.22;4914394;29;20056;-49
2022/05/13 06:53:29;;;;;;;14.32;9.75;;;;;;;16.75;81.21;94256.22;4913371;29;20293;-48
2022/05/13 06:55:57;;;;;;;15.57;9.80;;;;;;;16.87;80.84;94245.56;4914307;29;20051;-51
2022/05/13 06:58:23;;;;;;;14.53;9.00;;;;;;;17.99;76.83;94248.69;4913975;29;20405;-52
2022/05/13 07:00:50;;;;;;;14.70;9.48;;;;;;;17.64;76.11;94250.75;4914640;29;20044;-50
2022/05/13 07:03:19;;;;;;;13.35;9.40;;;;;;;17.22;79.40;94260.19;4913940;29;20048;-54
2022/05/13 07:05:46;;;;;;;12.77;8.60;;;;;;;16.97;78.40;94256.28;4914283;29;20052;-52
2022/05/13 07:08:14;;;;;;;15.70;9.20;;;;;;;16.61;80.30;94253.91;4913911;29;20056;-51
2022/05/13 07:10:42;;;;;;;11.60;8.43;;;;;;;16.31;81.13;94253.28;4914563;29;20409;-47
2022/05/13 07:13:11;;;;;;;14.13;9.38;;;;;;;15.90;84.49;94268.03;4913810;29;20051;-50
2022/05/13 07:15:38;;;;;;;12.52;9.40;;;;;;;16.20;82.38;94279.75;4914113;29;20040;-51
2022/05/13 07:18:05;;;;;;;15.23;8.98;;;;;;;15.80;85.12;94280.97;4913734;29;20063;-49
2022/05/13 07:20:32;;;;;;;11.52;8.88;;;;;;;15.87;85.15;94277.97;4881828;29;20079;-53
2022/05/13 07:22:59;;;;;;;13.13;9.47;;;;;;;16.01;84.67;94276.00;4897112;29;20044;-58
2022/05/13 07:25:26;;;;;;;14.35;9.25;;;;;;;15.73;85.32;94273.63;4894699;29;20104;-51
2022/05/13 07:27:53;;;;;;;14.00;9.38;;;;;;;15.50;87.10;94273.91;4895128;29;20441;-52
2022/05/13 07:30:20;;;;;;;13.45;8.75;;;;;;;15.27;88.00;94277.69;4894879;29;20059;-51
2022/05/13 07:32:47;;;;;;;15.77;9.10;;;;;;;15.30;89.35;94280.38;4895099;29;20113;-49
2022/05/13 07:35:13;;;;;;;14.43;8.87;;;;;;;15.44;88.87;94278.44;4894518;29;20048;-49
2022/05/13 07:37:40;;;;;;;12.48;8.93;;;;;;;15.50;89.22;94279.44;4895221;29;20549;-55
2022/05/13 07:42:53;;;;;;;12.57;8.73;;;;;;;15.66;87.61;94278.59;4895016;29;20127;-53
2022/05/13 07:45:20;;;;;;;12.98;8.60;;;;;;;15.73;86.74;94284.72;4894277;29;20096;-50
2022/05/13 07:47:47;;;;;;;12.10;8.20;;;;;;;15.62;88.42;94289.75;4880626;29;20049;-50
2022/05/13 07:50:14;;;;;;;11.05;7.78;;;;;;;15.56;87.68;94297.81;4898025;29;20116;-53
2022/05/13 07:52:42;;;;;;;11.88;7.30;;;;;;;15.54;87.03;94294.72;4898636;29;20048;-50
2022/05/13 07:55:11;;;;;;;11.85;7.45;;;;;;;15.44;87.22;94304.09;4897932;29;20077;-53
2022/05/13 07:57:40;;;;;;;12.85;7.00;;;;;;;15.37;88.34;94307.84;4898775;29;20044;-54
2022/05/13 08:00:25;;;;;;;11.07;7.30;;;;;;;15.47;88.12;94311.50;4889327;29;20060;-53
2022/05/13 08:02:54;;;;;;;10.27;6.82;;;;;;;15.55;87.44;94303.78;4888100;29;20053;-54
2022/05/13 08:05:22;;;;;;;9.98;7.00;;;;;;;15.74;86.99;94311.19;4879464;29;20382;-52
2022/05/13 08:08:01;;;;;;;9.43;6.68;;;;;;;15.87;85.56;94307.66;4879953;29;20055;-48
2022/05/13 08:10:28;;;;;;;11.40;6.95;;;;;;;15.97;86.78;94312.88;4879323;29;20036;-50
2022/05/13 08:12:55;;;;;;;9.23;6.73;;;;;;;15.76;86.53;94311.50;4879620;29;20049;-55
2022/05/13 08:15:22;;;;;;;9.60;6.63;;;;;;;15.87;86.82;94310.41;4885408;29;20057;-54
2022/05/13 08:17:49;;;;;;;8.10;6.32;;;;;;;15.70;85.57;94315.25;4898518;29;20053;-52
2022/05/13 08:20:15;;;;;;;8.35;5.60;;;;;;;15.79;85.14;94326.44;4897992;29;20062;-49
2022/05/13 08:22:42;;;;;;;11.88;7.78;;;;;;;15.91;85.81;94328.47;4898307;29;20063;-50
2022/05/13 08:25:09;;;;;;;13.07;8.17;;;;;;;16.01;85.35;94331.38;4914973;29;20052;-55
2022/05/13 08:27:36;;;;;;;12.88;7.32;;;;;;;16.10;86.28;94342.59;4917307;29;20129;-53
2022/05/13 08:30:05;;;;;;;9.23;6.03;;;;;;;15.62;85.60;94345.09;4916804;29;20040;-50
2022/05/13 08:32:32;;;;;;;5.25;3.38;;;;;;;14.77;84.43;94343.38;4915865;29;20413;-52
2022/05/13 08:34:59;;;;;;;6.65;3.28;;;;;;;14.71;84.85;94345.09;4916998;29;20060;-48
2022/05/13 08:37:46;;;;;;;7.53;2.90;;;;;;;14.52;85.60;94357.72;4915165;29;20379;-54
2022/05/13 08:40:49;;;;;;;4.95;2.70;;;;;;;14.49;86.28;94361.38;4916319;29;20052;-51
2022/05/13 08:43:25;;;;;;;6.57;2.80;;;;;;;13.95;87.93;94357.78;4898209;29;20102;-52
2022/05/13 08:45:59;;;;;;;8.18;2.78;;;;;;;14.33;88.10;94371.16;4916775;29;20048;-54
2022/05/13 08:48:42;;;;;;;6.72;2.80;;;;;;;14.39;88.31;94361.16;4916076;29;20052;-48
2022/05/13 08:51:13;;;;;;;4.67;2.40;;;;;;;14.52;85.69;94372.31;4916420;29;20040;-49
2022/05/13 08:53:55;;;;;;;3.70;1.75;;;;;;;14.33;84.43;94379.44;4916673;29;20056;-50
2022/05/13 08:56:29;;;;;;;3.95;1.70;;;;;;;14.62;83.77;94378.06;4916088;29;20074;-54
2022/05/13 08:59:00;;;;;;;5.63;2.40;;;;;;;14.90;82.38;94380.13;4914152;29;20050;-54
2022/05/13 09:01:55;;;;;;;4.20;2.20;;;;;;;15.10;81.36;94382.78;4909230;29;20074;-48
2022/05/13 09:04:37;;;;;;;4.60;3.20;;;;;;;14.77;80.33;94371.00;4898245;29;20119;-50
2022/05/13 09:07:16;;;;;;;6.00;3.40;;;;;;;15.34;79.73;94369.53;4911713;29;20489;-51
2022/05/13 09:09:46;;;;;;;6.18;3.90;;;;;;;16.12;78.13;94370.59;4897589;29;20457;-53
2022/05/13 09:12:17;;;;;;;6.32;4.00;;;;;;;17.60;72.44;94369.47;4896841;29;20048;-51
2022/05/13 09:14:50;;;;;;;8.18;4.13;;;;;;;18.37;68.01;94372.59;4896747;29;20056;-52
2022/05/13 09:17:23;;;;;;;7.53;3.90;;;;;;;18.59;67.57;94382.91;4897024;29;20063;-50
2022/05/13 09:20:14;;;;;;;6.95;4.03;;;;;;;18.56;67.20;94381.81;4897258;29;20049;-50
2022/05/13 09:22:52;;;;;;;7.75;4.20;;;;;;;18.20;67.76;94388.72;4893720;29;20119;-54
2022/05/13 09:25:36;;;;;;;7.55;3.92;;;;;;;19.23;63.70;94382.38;4914859;29;20048;-53
2022/05/13 09:28:11;;;;;;;7.97;4.63;;;;;;;19.42;63.41;94372.84;4916210;29;20055;-48
2022/05/13 09:30:45;;;;;;;12.03;4.20;;;;;;;21.12;59.40;94378.72;4915283;29;20690;-52
2022/05/13 09:33:24;;;;;;;8.60;4.20;;;;;;;21.80;57.16;94377.38;4915468;29;20055;-51
2022/05/13 09:36:01;;;;;;;11.57;4.78;;;;;;;21.44;56.38;94381.97;4915822;29;20056;-52
2022/05/13 09:38:47;;;;;;;8.77;4.30;;;;;;;21.35;54.42;94379.22;4914975;29;20351;-49
2022/05/13 09:41:24;;;;;;;10.95;4.30;;;;;;;19.35;59.36;94389.81;4915391;29;20048;-49
2022/05/13 09:43:54;;;;;;;9.07;4.30;;;;;;;21.44;55.76;94384.00;4915762;29;20056;-49
2022/05/13 09:46:33;;;;;;;8.70;3.90;;;;;;;22.16;53.20;94377.53;4913716;29;20054;-50
2022/05/13 09:49:36;;;;;;;9.48;4.00;;;;;;;21.19;54.59;94379.59;4915678;29;20052;-50
2022/05/13 09:52:14;;;;;;;9.43;4.65;;;;;;;21.16;56.84;94384.13;4914686;29;20814;-52
2022/05/13 09:54:43;;;;;;;9.15;4.55;;;;;;;23.78;49.60;94378.53;4929390;29;20048;-56
2022/05/13 09:57:31;;;;;;;8.37;4.10;;;;;;;24.30;48.19;94389.06;4913892;29;20048;-52
2022/05/13 10:00:19;;;;;;;8.20;4.47;;;;;;;23.54;47.83;94384.31;4914298;29;20054;-51
2022/05/13 10:02:49;;;;;;;7.97;4.07;;;;;;;23.75;47.87;94389.94;4914439;29;20048;-51
2022/05/13 10:05:26;;;;;;;8.88;4.20;;;;;;;22.88;49.69;94386.44;4914703;29;20099;-53
2022/05/13 10:07:53;;;;;;;10.48;4.95;;;;;;;19.73;56.13;94386.63;4915200;29;20052;-51
2022/05/13 10:16:05;;;;;;;9.45;4.60;;;;;;;19.56;58.64;94383.38;4912627;29;20055;-52
2022/05/13 10:18:35;;;;;;;10.95;5.53;;;;;;;18.38;60.94;94387.31;4914888;29;20052;-55
2022/05/13 10:21:08;;;;;;;12.23;5.00;;;;;;;18.50;62.09;94389.22;4914835;29;20044;-50
2022/05/13 10:24:11;;;;;;;9.60;4.97;;;;;;;18.02;63.86;94399.72;4908944;29;21469;-53
2022/05/13 10:26:41;;;;;;;10.45;4.82;;;;;;;17.84;64.03;94394.81;4895200;29;20698;-52
2022/05/13 10:29:16;;;;;;;8.55;4.93;;;;;;;17.40;65.07;94394.72;4878891;29;20040;-47
2022/05/13 10:31:46;;;;;;;9.18;4.70;;;;;;;18.06;63.97;94392.81;4895714;29;20083;-54
2022/05/13 10:34:32;;;;;;;11.82;4.60;;;;;;;18.20;63.49;94399.06;4895398;29;20395;-51
2022/05/13 10:37:13;;;;;;;10.30;4.80;;;;;;;18.50;62.74;94395.53;4895924;29;20053;-51
2022/05/13 10:39:51;;;;;;;9.98;4.85;;;;;;;18.21;61.01;94393.06;4895037;29;20150;-53
2022/05/13 10:42:22;;;;;;;9.43;4.50;;;;;;;18.84;59.70;94393.09;4895539;29;20391;-53
2022/05/13 10:45:23;;;;;;;10.38;4.50;;;;;;;19.60;57.17;94388.00;4889350;29;20041;-55
2022/05/13 10:47:52;;;;;;;10.15;4.80;;;;;;;19.86;55.86;94378.16;4869879;29;21760;-48
2022/05/13 10:50:33;;;;;;;9.97;4.63;;;;;;;19.28;56.37;94384.56;4876447;29;20048;-53
2022/05/13 10:53:27;;;;;;;10.82;4.40;;;;;;;20.23;54.11;94382.91;4876933;29;20053;-53
2022/05/13 10:56:13;;;;;;;7.82;3.80;;;;;;;20.97;52.61;94371.50;4876220;29;20082;-55
2022/05/13 10:58:42;;;;;;;11.05;4.88;;;;;;;20.05;55.10;94367.75;4876094;29;21805;-49
2022/05/13 11:01:40;;;;;;;10.23;4.70;;;;;;;20.20;53.79;94372.66;4876292;29;20057;-52
2022/05/13 11:04:16;;;;;;;9.10;4.30;;;;;;;20.39;54.38;94374.19;4876148;29;20108;-52
2022/05/13 11:06:51;;;;;;;11.60;4.50;;;;;;;20.93;52.75;94369.69;4876821;29;20052;-50
2022/05/13 11:09:43;;;;;;;9.82;4.53;;;;;;;21.50;51.92;94366.09;4876163;29;20041;-50
2022/05/13 11:12:30;;;;;;;11.07;4.80;;;;;;;21.31;52.63;94367.47;4876149;29;20096;-52
2022/05/13 11:15:03;;;;;;;9.63;4.43;;;;;;;21.69;52.87;94377.13;4879563;29;20049;-51
2022/05/13 11:17:52;;;;;;;9.27;4.40;;;;;;;22.19;51.29;94374.53;4894231;29;20417;-52
2022/05/13 11:20:39;;;;;;;8.38;4.65;;;;;;;22.66;49.59;94363.69;4894532;29;20129;-50
2022/05/13 11:23:22;;;;;;;9.43;4.28;;;;;;;22.76;49.31;94361.53;4895852;29;20060;-51
2022/05/13 11:26:29;;;;;;;9.63;4.45;;;;;;;23.02;50.07;94356.09;4914326;29;20040;-55
2022/05/13 11:29:04;;;;;;;10.75;4.82;;;;;;;21.92;51.32;94356.00;4913212;29;20044;-49
2022/05/13 11:32:02;;;;;;;7.23;4.30;;;;;;;22.24;51.87;94353.56;4913495;29;21686;-54
2022/05/13 11:34:56;;;;;;;8.45;4.78;;;;;;;22.15;50.84;94357.19;4911892;29;20409;-56
2022/05/13 11:37:28;;;;;;;9.75;5.00;;;;;;;21.71;51.38;94355.09;4913904;29;20048;-55
2022/05/13 11:40:07;;;;;;;9.27;5.15;;;;;;;21.58;51.90;94360.16;4914194;29;20458;-53
2022/05/13 11:45:50;;;;;;;11.93;4.47;;;;;;;22.52;49.51;94359.66;4905470;29;20055;-54
2022/05/13 11:48:32;;;;;;;8.93;4.68;;;;;;;21.35;53.47;94368.06;4894800;29;20079;-50
2022/05/13 11:51:17;;;;;;;10.20;4.95;;;;;;;20.68;54.47;94367.28;4895199;29;20505;-55
2022/05/13 11:53:45;;;;;;;8.10;4.85;;;;;;;21.29;51.62;94362.34;4894122;29;20163;-52
2022/05/13 11:56:29;;;;;;;9.68;4.57;;;;;;;21.96;51.99;94359.38;4894429;29;20061;-51
2022/05/13 11:59:28;;;;;;;9.17;4.73;;;;;;;21.99;50.04;94357.66;4894987;29;20052;-51
2022/05/13 12:01:56;;;;;;;8.50;4.20;;;;;;;22.21;49.28;94360.84;4893940;29;20469;-50
2022/05/13 12:04:29;;;;;;;10.25;4.60;;;;;;;21.34;49.93;94356.09;4894506;29;20059;-47
2022/05/13 12:06:58;;;;;;;7.50;4.43;;;;;;;21.74;50.84;94354.91;4895029;29;20049;-52
2022/05/13 12:09:48;;;;;;;10.25;4.85;;;;;;;21.57;51.18;94353.03;4894306;29;20045;-50
2022/05/13 12:12:38;;;;;;;10.00;4.57;;;;;;;21.99;49.79;94340.88;4894143;29;20055;-53
2022/05/13 12:15:24;;;;;;;7.57;4.50;;;;;;;22.00;49.92;94348.03;4894071;29;20049;-54
2022/05/13 12:18:11;;;;;;;8.27;4.75;;;;;;;21.38;50.99;94347.56;4894774;29;20121;-46
2022/05/13 12:21:13;;;;;;;8.55;4.63;;;;;;;21.82;50.18;94346.94;4908219;29;20257;-51
2022/05/13 12:24:14;;;;;;;10.45;4.60;;;;;;;21.61;51.89;94354.41;4899394;29;20070;-51
2022/05/13 12:26:53;;;;;;;7.90;4.70;;;;;;;21.84;51.08;94352.06;4912759;29;20125;-48